createdAt,value
2022-07-26T00:02:01.880Z,3.40
2022-07-26T00:04:34.118Z,3.00
2022-07-26T00:07:06.027Z,3.20
2022-07-26T00:09:49.050Z,3.60
2022-07-26T00:12:20.703Z,3.60
2022-07-26T00:14:54.306Z,4.10
2022-07-26T00:17:23.372Z,4.50
2022-07-26T00:19:52.609Z,4.10
2022-07-26T00:22:39.115Z,3.70
2022-07-26T00:25:11.111Z,3.80
2022-07-26T00:30:14.526Z,3.80
2022-07-26T00:32:48.086Z,3.80
2022-07-26T00:35:18.362Z,3.80
2022-07-26T00:37:50.417Z,4.00
2022-07-26T00:40:19.666Z,4.00
2022-07-26T00:42:54.570Z,3.50
2022-07-26T00:45:25.011Z,3.70
2022-07-26T00:47:56.087Z,3.40
2022-07-26T00:50:33.513Z,3.50
2022-07-26T00:53:05.744Z,3.20
2022-07-26T00:55:38.432Z,3.20
2022-07-26T00:58:13.619Z,3.70
2022-07-26T01:01:03.330Z,3.80
2022-07-26T01:03:41.906Z,3.10
2022-07-26T01:06:17.934Z,3.60
2022-07-26T01:09:07.191Z,3.20
2022-07-26T01:11:44.427Z,3.20
2022-07-26T01:14:22.230Z,3.60
2022-07-26T01:17:00.769Z,4.00
2022-07-26T01:19:31.123Z,3.30
2022-07-26T01:22:12.536Z,3.30
2022-07-26T01:24:49.508Z,3.40
2022-07-26T01:27:18.985Z,3.70
2022-07-26T01:29:52.537Z,3.90
2022-07-26T01:32:24.342Z,3.00
2022-07-26T01:34:54.514Z,4.60
2022-07-26T01:37:28.549Z,2.90
2022-07-26T01:40:08.112Z,3.20
2022-07-26T01:42:41.169Z,3.80
2022-07-26T01:45:13.233Z,3.70
2022-07-26T01:47:52.757Z,3.60
2022-07-26T01:50:34.530Z,3.70
2022-07-26T01:53:13.674Z,3.20
2022-07-26T01:55:45.859Z,3.80
2022-07-26T01:58:27.227Z,3.40
2022-07-26T02:03:30.440Z,3.40
2022-07-26T02:06:08.744Z,3.40
2022-07-26T02:08:37.993Z,4.10
2022-07-26T02:11:11.456Z,3.30
2022-07-26T02:13:48.796Z,4.20
2022-07-26T02:16:27.561Z,3.40
2022-07-26T02:19:01.758Z,3.60
2022-07-26T02:21:42.381Z,3.90
2022-07-26T02:24:16.295Z,3.60
2022-07-26T02:26:50.826Z,3.70
2022-07-26T02:29:20.063Z,3.70
2022-07-26T02:31:52.257Z,3.70
2022-07-26T02:34:24.392Z,3.90
2022-07-26T02:36:53.701Z,4.70
2022-07-26T02:39:30.191Z,5.30
2022-07-26T02:42:10.662Z,5.60
2022-07-26T02:44:43.129Z,5.10
2022-07-26T02:47:21.118Z,5.10
2022-07-26T02:49:50.299Z,4.70
2022-07-26T02:52:21.947Z,3.50
2022-07-26T02:54:53.224Z,4.20
2022-07-26T02:57:30.974Z,5.10
2022-07-26T03:00:23.566Z,3.80
2022-07-26T03:02:53.604Z,3.60
2022-07-26T03:05:25.701Z,4.20
2022-07-26T03:07:56.961Z,3.90
2022-07-26T03:10:28.001Z,3.80
2022-07-26T03:13:05.681Z,4.00
2022-07-26T03:15:42.673Z,3.80
2022-07-26T03:18:15.295Z,4.50
2022-07-26T03:20:50.971Z,3.70
2022-07-26T03:23:22.859Z,4.20
2022-07-26T03:26:03.921Z,4.30
2022-07-26T03:28:36.143Z,4.50
2022-07-26T03:31:05.646Z,4.70
2022-07-26T03:33:42.221Z,4.80
2022-07-26T03:36:15.570Z,4.70
2022-07-26T03:38:45.004Z,4.40
2022-07-26T03:41:15.254Z,5.10
2022-07-26T03:43:44.186Z,5.40
2022-07-26T03:46:14.646Z,5.00
2022-07-26T03:48:47.924Z,4.90
2022-07-26T03:51:17.078Z,5.40
2022-07-26T03:53:46.207Z,5.10
2022-07-26T03:56:32.151Z,5.50
2022-07-26T03:59:05.888Z,5.50
2022-07-26T04:01:42.078Z,5.80
2022-07-26T04:04:14.753Z,5.30
2022-07-26T04:06:48.146Z,5.50
2022-07-26T04:09:39.206Z,5.70
2022-07-26T04:12:11.565Z,5.40
2022-07-26T04:14:45.104Z,5.70
2022-07-26T04:17:17.606Z,5.90
2022-07-26T04:19:49.170Z,5.00
2022-07-26T04:22:24.181Z,6.50
2022-07-26T04:24:54.439Z,5.80
2022-07-26T04:27:23.411Z,5.60
2022-07-26T04:29:55.004Z,5.10
2022-07-26T04:32:24.172Z,6.00
2022-07-26T04:34:55.466Z,6.70
2022-07-26T04:37:40.647Z,5.40
2022-07-26T04:40:15.781Z,5.80
2022-07-26T04:42:51.507Z,5.40
2022-07-26T04:45:32.505Z,5.10
2022-07-26T04:48:06.747Z,6.00
2022-07-26T04:50:46.399Z,5.80
2022-07-26T04:53:34.632Z,7.20
2022-07-26T04:56:31.569Z,7.70
2022-07-26T04:59:32.535Z,6.90
2022-07-26T05:02:11.647Z,8.80
2022-07-26T05:06:23.436Z,6.60
2022-07-26T05:10:56.161Z,8.30
2022-07-26T05:13:31.122Z,7.90
2022-07-26T05:16:11.869Z,9.30
2022-07-26T05:18:45.623Z,8.10
2022-07-26T05:21:19.082Z,7.90
2022-07-26T05:23:48.020Z,9.30
2022-07-26T05:26:16.890Z,9.20
2022-07-26T05:28:45.764Z,10.30
2022-07-26T05:31:14.836Z,9.50
2022-07-26T05:33:45.060Z,9.60
2022-07-26T05:36:14.115Z,10.80
2022-07-26T05:38:43.332Z,12.40
2022-07-26T05:41:13.256Z,10.30
2022-07-26T05:43:44.093Z,10.50
2022-07-26T05:46:13.190Z,12.10
2022-07-26T05:48:43.151Z,11.60
2022-07-26T05:51:12.786Z,11.20
2022-07-26T05:53:41.892Z,12.00
2022-07-26T05:56:10.869Z,11.50
2022-07-26T05:58:39.856Z,11.60
2022-07-26T06:01:08.990Z,11.40
2022-07-26T06:03:38.549Z,10.60
2022-07-26T06:06:08.263Z,11.00
2022-07-26T06:08:37.471Z,10.80
2022-07-26T06:11:15.825Z,12.20
2022-07-26T06:13:56.579Z,11.20
2022-07-26T06:16:25.965Z,12.00
2022-07-26T06:19:00.973Z,11.20
2022-07-26T06:21:29.925Z,11.60
2022-07-26T06:23:58.854Z,11.00
2022-07-26T06:26:27.928Z,11.30
2022-07-26T06:28:56.971Z,10.30
2022-07-26T06:31:29.803Z,11.50
2022-07-26T06:34:03.420Z,11.40
2022-07-26T06:36:32.446Z,10.50
2022-07-26T06:39:01.560Z,11.70
2022-07-26T06:41:30.710Z,11.20
2022-07-26T06:44:04.009Z,11.90
2022-07-26T06:46:36.465Z,11.50
2022-07-26T06:49:05.988Z,12.00
2022-07-26T06:51:40.424Z,12.00
2022-07-26T06:54:12.279Z,12.00
2022-07-26T06:56:41.318Z,12.20
2022-07-26T06:59:10.458Z,12.60
2022-07-26T07:01:59.443Z,13.10
2022-07-26T07:04:35.184Z,13.20
2022-07-26T07:07:08.905Z,12.50
2022-07-26T07:09:57.090Z,11.80
2022-07-26T07:12:41.510Z,11.80
2022-07-26T07:15:14.430Z,11.40
2022-07-26T07:17:55.442Z,10.70
2022-07-26T07:20:35.516Z,10.70
2022-07-26T07:23:12.256Z,11.90
2022-07-26T07:25:47.413Z,12.20
2022-07-26T07:28:23.662Z,10.70
2022-07-26T07:30:53.032Z,10.70
2022-07-26T07:33:23.319Z,13.10
2022-07-26T07:35:56.029Z,13.50
2022-07-26T07:38:25.082Z,10.50
2022-07-26T07:40:55.225Z,13.30
2022-07-26T07:43:25.546Z,11.50
2022-07-26T07:45:57.510Z,9.40
2022-07-26T07:48:26.738Z,8.90
2022-07-26T07:50:56.004Z,9.30
2022-07-26T07:53:25.014Z,9.50
2022-07-26T07:55:55.466Z,10.50
2022-07-26T07:58:24.620Z,9.60
2022-07-26T08:00:57.273Z,10.40
2022-07-26T08:03:38.967Z,9.20
2022-07-26T08:06:10.871Z,9.90
2022-07-26T08:08:39.736Z,9.70
2022-07-26T08:11:11.201Z,9.40
2022-07-26T08:13:47.289Z,10.20
2022-07-26T08:16:16.932Z,9.80
2022-07-26T08:18:58.047Z,9.40
2022-07-26T08:21:33.498Z,8.20
2022-07-26T08:24:03.688Z,7.60
2022-07-26T08:26:32.520Z,8.00
2022-07-26T08:29:06.463Z,6.80
2022-07-26T08:31:35.566Z,6.90
2022-07-26T08:34:04.694Z,7.00
2022-07-26T08:36:33.597Z,7.30
2022-07-26T08:39:02.489Z,6.80
2022-07-26T08:41:34.102Z,6.20
2022-07-26T08:44:11.343Z,6.10
2022-07-26T08:46:42.759Z,6.30
2022-07-26T08:51:44.652Z,7.20
2022-07-26T08:54:16.244Z,6.30
2022-07-26T08:56:53.318Z,6.70
2022-07-26T08:59:24.745Z,5.60
2022-07-26T09:02:05.189Z,7.40
2022-07-26T09:04:43.681Z,5.70
2022-07-26T09:07:19.109Z,5.70
2022-07-26T09:10:11.966Z,5.90
2022-07-26T09:12:47.692Z,5.80
2022-07-26T09:15:25.381Z,5.70
2022-07-26T09:17:58.261Z,5.90
2022-07-26T09:20:30.553Z,5.40
2022-07-26T09:23:16.711Z,5.80
2022-07-26T09:25:56.524Z,6.80
2022-07-26T09:28:33.011Z,6.00
2022-07-26T09:31:07.966Z,6.00
2022-07-26T09:33:48.732Z,5.10
2022-07-26T09:36:30.320Z,5.30
2022-07-26T09:39:05.087Z,5.10
2022-07-26T09:41:40.610Z,5.00
2022-07-26T09:44:27.831Z,5.30
2022-07-26T09:47:00.524Z,5.80
2022-07-26T09:49:32.830Z,5.30
2022-07-26T09:52:22.077Z,5.80
2022-07-26T09:54:53.773Z,5.50
2022-07-26T09:57:25.458Z,5.50
2022-07-26T10:00:00.173Z,5.10
2022-07-26T10:02:42.928Z,4.60
2022-07-26T10:05:17.964Z,5.40
2022-07-26T10:08:00.577Z,4.00
2022-07-26T10:10:59.962Z,5.30
2022-07-26T10:13:33.579Z,5.10
2022-07-26T10:16:28.802Z,4.30
2022-07-26T10:19:04.640Z,4.00
2022-07-26T10:21:41.986Z,3.80
2022-07-26T10:24:33.809Z,3.90
2022-07-26T10:27:42.296Z,3.30
2022-07-26T10:30:27.667Z,3.30
2022-07-26T10:33:06.569Z,3.50
2022-07-26T10:35:45.912Z,3.30
2022-07-26T10:38:30.030Z,3.90
2022-07-26T10:41:16.707Z,3.00
2022-07-26T10:44:15.731Z,3.10
2022-07-26T10:47:03.216Z,3.10
2022-07-26T10:49:57.325Z,2.60
2022-07-26T10:52:31.453Z,3.10
2022-07-26T10:55:08.000Z,3.10
2022-07-26T10:57:44.806Z,2.90
2022-07-26T11:00:30.654Z,3.50
2022-07-26T11:03:01.069Z,3.20
2022-07-26T11:05:38.802Z,3.90
2022-07-26T11:08:09.434Z,4.20
2022-07-26T11:10:50.087Z,3.10
2022-07-26T11:13:24.338Z,3.40
2022-07-26T11:16:09.297Z,5.80
2022-07-26T11:18:43.760Z,4.30
2022-07-26T11:21:16.817Z,4.70
2022-07-26T11:23:51.461Z,3.30
2022-07-26T11:26:45.791Z,4.70
2022-07-26T11:29:41.008Z,6.60
2022-07-26T11:32:23.458Z,4.20
2022-07-26T11:35:01.512Z,3.20
2022-07-26T11:38:07.857Z,3.00
2022-07-26T11:40:48.489Z,3.10
2022-07-26T11:43:21.820Z,2.40
2022-07-26T11:45:55.524Z,2.70
2022-07-26T11:48:28.486Z,3.00
2022-07-26T11:51:43.936Z,3.10
2022-07-26T11:54:14.700Z,3.50
2022-07-26T11:57:02.695Z,3.60
2022-07-26T11:59:37.818Z,3.80
2022-07-26T12:02:09.469Z,4.90
2022-07-26T12:04:43.855Z,3.20
2022-07-26T12:07:21.612Z,3.10
2022-07-26T12:09:53.504Z,2.90
2022-07-26T12:12:32.045Z,3.00
2022-07-26T12:15:07.203Z,3.80
2022-07-26T12:17:36.283Z,5.70
2022-07-26T12:20:17.948Z,8.90
2022-07-26T12:23:05.083Z,7.80
2022-07-26T12:25:37.510Z,6.50
2022-07-26T12:28:14.305Z,3.60
2022-07-26T12:30:45.910Z,2.30
2022-07-26T12:33:17.428Z,2.10
2022-07-26T12:35:47.049Z,2.40
2022-07-26T12:38:16.078Z,2.20
2022-07-26T12:40:45.049Z,2.40
2022-07-26T12:43:13.958Z,5.90
2022-07-26T12:45:43.669Z,4.90
2022-07-26T12:48:12.828Z,5.50
2022-07-26T12:50:43.854Z,6.20
2022-07-26T12:53:13.191Z,3.70
2022-07-26T12:55:42.089Z,2.90
2022-07-26T12:58:11.165Z,2.20
2022-07-26T13:00:41.345Z,2.30
2022-07-26T13:03:10.522Z,2.00
2022-07-26T13:05:39.525Z,1.80
2022-07-26T13:08:08.382Z,4.60
2022-07-26T13:10:43.847Z,2.30
2022-07-26T13:13:14.569Z,5.10
2022-07-26T13:15:48.033Z,6.20
2022-07-26T13:18:18.670Z,7.70
2022-07-26T13:20:52.670Z,4.40
2022-07-26T13:23:26.926Z,2.60
2022-07-26T13:25:57.440Z,2.30
2022-07-26T13:28:26.950Z,2.60
2022-07-26T13:31:00.409Z,2.90
2022-07-26T13:33:32.792Z,2.00
2022-07-26T13:36:01.979Z,2.50
2022-07-26T13:38:33.787Z,12.30
2022-07-26T13:41:05.159Z,4.70
2022-07-26T13:43:35.505Z,2.60
2022-07-26T13:46:04.662Z,1.80
2022-07-26T13:48:33.727Z,2.50
2022-07-26T13:51:04.176Z,1.90
2022-07-26T13:53:36.537Z,4.30
2022-07-26T13:56:26.936Z,2.00
2022-07-26T13:58:55.868Z,2.30
2022-07-26T14:01:43.310Z,43.70
2022-07-26T14:04:15.615Z,4.90
2022-07-26T14:06:46.168Z,3.40
2022-07-26T14:09:17.942Z,2.50
2022-07-26T14:11:47.292Z,3.00
2022-07-26T14:14:17.292Z,2.50
2022-07-26T14:16:49.294Z,2.20
2022-07-26T14:19:19.037Z,2.30
2022-07-26T14:21:58.990Z,2.60
2022-07-26T14:24:32.492Z,2.50
2022-07-26T14:27:03.611Z,2.40
2022-07-26T14:29:32.847Z,26.10
2022-07-26T14:32:09.568Z,5.00
2022-07-26T14:34:41.718Z,2.70
2022-07-26T14:37:41.430Z,2.60
2022-07-26T14:40:00.037Z,2.40
2022-07-26T14:42:29.161Z,3.40
2022-07-26T14:44:58.063Z,2.60
2022-07-26T14:47:26.998Z,2.30
2022-07-26T14:49:55.879Z,2.20
2022-07-26T14:52:24.835Z,8.80
2022-07-26T14:54:53.687Z,3.30
2022-07-26T14:57:22.582Z,2.30
2022-07-26T14:59:51.553Z,2.50
2022-07-26T15:02:20.968Z,2.40
2022-07-26T15:04:49.779Z,2.20
2022-07-26T15:07:18.669Z,2.90
2022-07-26T15:09:47.617Z,2.50
2022-07-26T15:12:16.651Z,3.40
2022-07-26T15:14:46.483Z,2.70
2022-07-26T15:17:18.298Z,2.00
2022-07-26T15:19:47.280Z,2.10
2022-07-26T15:22:16.357Z,2.10
2022-07-26T15:24:45.640Z,2.10
2022-07-26T15:27:17.755Z,2.10
2022-07-26T15:29:48.800Z,1.80
2022-07-26T15:32:17.876Z,1.80
2022-07-26T15:34:46.873Z,1.60
2022-07-26T15:37:15.792Z,1.70
2022-07-26T15:39:45.078Z,2.20
2022-07-26T15:42:16.034Z,1.70
2022-07-26T15:44:45.013Z,2.00
2022-07-26T15:47:15.591Z,1.70
2022-07-26T15:50:00.838Z,1.60
2022-07-26T15:52:29.902Z,1.60
2022-07-26T15:55:01.414Z,7.80
2022-07-26T15:57:30.298Z,2.20
2022-07-26T16:00:03.688Z,2.00
2022-07-26T16:02:41.047Z,2.10
2022-07-26T16:05:11.686Z,1.70
2022-07-26T16:07:41.974Z,2.40
2022-07-26T16:10:13.651Z,2.00
2022-07-26T16:12:43.222Z,1.90
2022-07-26T16:15:12.950Z,3.20
2022-07-26T16:17:42.261Z,1.80
2022-07-26T16:20:11.909Z,2.10
2022-07-26T16:22:44.070Z,2.10
2022-07-26T16:25:28.166Z,1.80
2022-07-26T16:27:59.857Z,2.10
2022-07-26T16:30:31.650Z,1.90
2022-07-26T16:33:00.903Z,2.80
2022-07-26T16:35:30.310Z,1.70
2022-07-26T16:38:00.107Z,2.20
2022-07-26T16:40:29.275Z,1.70
2022-07-26T16:42:58.195Z,2.20
2022-07-26T16:45:27.422Z,2.10
2022-07-26T16:47:59.916Z,2.50
2022-07-26T16:50:29.304Z,2.50
2022-07-26T16:52:58.335Z,1.90
2022-07-26T16:55:27.571Z,2.00
2022-07-26T16:57:59.242Z,2.20
2022-07-26T17:00:37.738Z,2.30
2022-07-26T17:03:09.253Z,2.90
2022-07-26T17:05:38.575Z,2.20
2022-07-26T17:08:08.470Z,1.90
2022-07-26T17:10:40.818Z,8.40
2022-07-26T17:13:15.722Z,2.50
2022-07-26T17:15:44.987Z,5.40
2022-07-26T17:18:14.409Z,2.70
2022-07-26T17:20:49.622Z,2.80
2022-07-26T17:23:18.852Z,4.50
2022-07-26T17:25:48.358Z,3.40
2022-07-26T17:28:20.338Z,2.50
2022-07-26T17:30:51.295Z,3.00
2022-07-26T17:33:26.916Z,2.40
2022-07-26T17:36:03.419Z,2.80
2022-07-26T17:38:36.106Z,2.80
2022-07-26T17:41:05.102Z,2.40
2022-07-26T17:43:36.671Z,2.60
2022-07-26T17:46:09.516Z,2.20
2022-07-26T17:48:39.755Z,3.10
2022-07-26T17:51:11.874Z,2.50
2022-07-26T17:53:53.354Z,2.40
2022-07-26T17:56:28.848Z,2.80
2022-07-26T18:01:28.671Z,2.90
2022-07-26T18:03:57.997Z,3.10
2022-07-26T18:06:33.221Z,3.60
2022-07-26T18:09:04.501Z,2.90
2022-07-26T18:11:40.805Z,3.00
2022-07-26T18:14:12.023Z,2.40
2022-07-26T18:16:53.914Z,3.30
2022-07-26T18:19:32.528Z,2.80
2022-07-26T18:22:05.911Z,2.50
2022-07-26T18:24:37.846Z,2.60
2022-07-26T18:27:08.528Z,3.20
2022-07-26T18:29:39.741Z,3.40
2022-07-26T18:32:10.296Z,2.60
2022-07-26T18:34:39.322Z,2.50
2022-07-26T18:37:08.252Z,3.20
2022-07-26T18:39:38.037Z,3.70
2022-07-26T18:44:38.669Z,3.00
2022-07-26T18:47:08.163Z,3.50
2022-07-26T18:49:38.307Z,3.10
2022-07-26T18:52:09.613Z,3.00
2022-07-26T18:54:43.018Z,3.50
2022-07-26T18:57:13.352Z,3.40
2022-07-26T18:59:49.257Z,3.10
2022-07-26T19:02:25.560Z,2.90
2022-07-26T19:05:05.322Z,2.90
2022-07-26T19:07:38.869Z,3.00
2022-07-26T19:10:12.429Z,3.40
2022-07-26T19:12:42.532Z,3.50
2022-07-26T19:15:21.756Z,3.10
2022-07-26T19:17:53.544Z,3.10
2022-07-26T19:20:34.827Z,3.10
2022-07-26T19:23:06.452Z,3.40
2022-07-26T19:25:45.702Z,3.50
2022-07-26T19:28:24.997Z,3.40
2022-07-26T19:30:54.395Z,3.00
2022-07-26T19:33:23.644Z,2.90
2022-07-26T19:35:55.368Z,3.20
2022-07-26T19:38:35.780Z,2.90
2022-07-26T19:41:08.293Z,6.90
2022-07-26T19:43:39.563Z,2.70
2022-07-26T19:46:08.595Z,1.80
2022-07-26T19:48:37.550Z,1.80
2022-07-26T19:51:06.417Z,1.40
2022-07-26T19:53:35.349Z,1.60
2022-07-26T19:56:07.937Z,1.60
2022-07-26T19:58:36.929Z,1.60
2022-07-26T20:01:05.999Z,1.20
2022-07-26T20:03:35.134Z,1.50
2022-07-26T20:06:04.202Z,1.80
2022-07-26T20:08:36.616Z,1.40
2022-07-26T20:11:19.630Z,1.10
2022-07-26T20:14:03.871Z,3.60
2022-07-26T20:16:36.642Z,1.50
2022-07-26T20:19:06.226Z,1.70
2022-07-26T20:21:37.566Z,1.60
2022-07-26T20:24:07.071Z,1.80
2022-07-26T20:26:37.665Z,1.40
2022-07-26T20:29:11.711Z,1.60
2022-07-26T20:31:45.909Z,1.50
2022-07-26T20:34:18.179Z,1.40
2022-07-26T20:36:47.653Z,1.60
2022-07-26T20:39:16.656Z,2.30
2022-07-26T20:41:45.810Z,4.00
2022-07-26T20:44:20.895Z,5.50
2022-07-26T20:46:53.479Z,3.10
2022-07-26T20:49:22.599Z,2.10
2022-07-26T20:51:51.748Z,1.90
2022-07-26T20:54:20.908Z,1.50
2022-07-26T20:56:49.999Z,2.00
2022-07-26T20:59:19.468Z,1.30
2022-07-26T21:01:48.489Z,1.80
2022-07-26T21:04:17.794Z,1.40
2022-07-26T21:06:47.264Z,1.70
2022-07-26T21:09:18.609Z,2.10
2022-07-26T21:11:51.235Z,1.60
2022-07-26T21:14:22.723Z,2.30
2022-07-26T21:16:52.075Z,2.10
2022-07-26T21:19:23.110Z,2.10
2022-07-26T21:21:54.785Z,2.40
2022-07-26T21:24:26.770Z,1.80
2022-07-26T21:26:58.074Z,1.70
2022-07-26T21:29:31.753Z,2.60
2022-07-26T21:32:22.099Z,2.20
2022-07-26T21:34:59.390Z,1.90
2022-07-26T21:37:29.650Z,1.90
2022-07-26T21:40:00.744Z,2.00
2022-07-26T21:42:31.552Z,1.90
2022-07-26T21:45:00.652Z,2.10
2022-07-26T21:47:40.393Z,2.40
2022-07-26T21:50:15.674Z,2.00
2022-07-26T21:52:44.665Z,1.90
2022-07-26T21:55:17.752Z,1.80
2022-07-26T21:57:48.292Z,2.30
2022-07-26T22:00:17.890Z,1.80
2022-07-26T22:02:46.833Z,2.80
2022-07-26T22:05:34.318Z,2.50
2022-07-26T22:08:09.089Z,2.00
2022-07-26T22:10:44.081Z,1.70
2022-07-26T22:13:14.962Z,2.30
2022-07-26T22:15:44.429Z,2.00
2022-07-26T22:18:14.304Z,1.90
2022-07-26T22:20:44.271Z,1.40
2022-07-26T22:23:13.480Z,1.70
2022-07-26T22:26:04.469Z,2.40
2022-07-26T22:28:37.106Z,2.00
2022-07-26T22:31:08.449Z,2.00
2022-07-26T22:33:37.636Z,2.60
2022-07-26T22:36:06.559Z,1.90
2022-07-26T22:38:35.466Z,2.90
2022-07-26T22:41:04.300Z,1.80
2022-07-26T22:43:34.347Z,1.60
2022-07-26T22:46:05.084Z,1.80
2022-07-26T22:48:38.132Z,1.80
2022-07-26T22:51:07.567Z,1.80
2022-07-26T22:53:40.825Z,1.60
2022-07-26T22:56:09.621Z,1.90
2022-07-26T22:58:40.918Z,1.60
2022-07-26T23:01:09.980Z,1.80
2022-07-26T23:03:38.971Z,2.20
2022-07-26T23:08:59.401Z,1.90
2022-07-26T23:11:28.313Z,1.40
2022-07-26T23:14:01.206Z,2.20
2022-07-26T23:16:30.294Z,1.70
2022-07-26T23:18:59.303Z,2.40
2022-07-26T23:21:28.156Z,1.90
2022-07-26T23:23:57.024Z,2.20
2022-07-26T23:26:25.914Z,2.00
2022-07-26T23:28:54.895Z,1.60
2022-07-26T23:31:23.955Z,1.70
2022-07-26T23:33:54.644Z,2.50
2022-07-26T23:36:26.804Z,1.70
2022-07-26T23:38:58.636Z,1.90
2022-07-26T23:41:28.473Z,2.20
2022-07-26T23:43:58.013Z,2.90
2022-07-26T23:46:27.610Z,2.10
2022-07-26T23:49:03.555Z,2.20
2022-07-26T23:51:32.551Z,2.40
2022-07-26T23:54:03.815Z,2.40
2022-07-26T23:56:32.727Z,2.40
2022-07-26T23:59:01.760Z,2.50
